Hundon, Virginia
Current Conditions -  °F | °C
As of 10:52 PM on Wednesday 17 Dec 2014 (Local Time) from KIAD Reporting Station
Scattered Clouds Scattered Clouds  
Wind Chill: 28°   Ceiling: Unl
Heat Index: 36°   Visibility: 10mi
Dew Point: 24°   Wind: 13mph
Humidity: 62%   Direction: 320°NW
Pressure: 30.07"   Gusts: NA
Location:  38.9599°N, 77.3372°W
Report Text: KIAD 180352Z 32011KT 10SM SCT041 02/M04 A3007 RMK AO2 SLP183 T00221044
Loading
Personal Weather Stations






























Interactive Weather Map New forecast layout! Learn more

10-Day Weather Forecast

Advertisements
Track Severe Weather on mobile